Time;durP1;ratioP1;P1;durP2;ratioP2;P2;SDS_P1;SDS_P2;PMS_P1;PMS_P2;Temp;Humidity;BMP_temperature;BMP_pressure;BME280_temperature;BME280_humidity;BME280_pressure;Samples;Min_cycle;Max_cycle;Signal;HPM_P1;HPM_P2
2021/12/22 00:01:06;;;;;;;21.38;13.23;;;;;;;;;;5095683;28;20318;-68
2021/12/22 00:03:32;;;;;;;21.17;12.52;;;;;;;;;;5095552;28;20595;-68
2021/12/22 00:05:58;;;;;;;22.17;12.13;;;;;;;;;;5095399;28;20277;-68
2021/12/22 00:08:25;;;;;;;18.08;11.80;;;;;;;;;;5095683;28;20171;-68
2021/12/22 00:10:51;;;;;;;18.60;11.07;;;;;;;;;;5095306;28;20620;-67
2021/12/22 00:13:18;;;;;;;20.60;12.13;;;;;;;;;;5095663;28;20613;-68
2021/12/22 00:15:44;;;;;;;18.77;11.85;;;;;;;;;;5094577;28;20174;-68
2021/12/22 00:18:10;;;;;;;20.02;12.38;;;;;;;;;;5093935;28;20270;-69
2021/12/22 00:20:36;;;;;;;23.02;11.35;;;;;;;;;;5094970;28;20192;-69
2021/12/22 00:23:02;;;;;;;19.50;11.57;;;;;;;;;;5094791;28;20528;-69
2021/12/22 00:25:29;;;;;;;24.38;12.65;;;;;;;;;;5094681;28;20174;-72
2021/12/22 00:27:57;;;;;;;18.20;10.88;;;;;;;;;;5094759;28;20260;-70
2021/12/22 00:30:26;;;;;;;18.95;11.82;;;;;;;;;;5093374;28;20187;-68
2021/12/22 00:32:56;;;;;;;20.48;12.38;;;;;;;;;;5094435;28;20171;-69
2021/12/22 00:35:30;;;;;;;18.13;11.82;;;;;;;;;;5094592;28;20159;-69
2021/12/22 00:37:56;;;;;;;19.77;12.13;;;;;;;;;;5094622;28;20182;-68
2021/12/22 00:40:22;;;;;;;20.65;11.82;;;;;;;;;;5094666;28;20164;-68
2021/12/22 00:42:48;;;;;;;18.38;10.63;;;;;;;;;;5094191;28;20628;-68
2021/12/22 00:45:17;;;;;;;18.93;11.00;;;;;;;;;;5094401;28;20253;-68
2021/12/22 00:47:43;;;;;;;17.92;11.95;;;;;;;;;;5094335;28;20436;-68
2021/12/22 00:50:09;;;;;;;19.35;11.35;;;;;;;;;;5094176;28;20259;-68
2021/12/22 00:52:35;;;;;;;19.60;10.73;;;;;;;;;;5094185;28;20191;-68
2021/12/22 00:55:01;;;;;;;21.80;11.50;;;;;;;;;;5094128;28;20178;-68
2021/12/22 00:57:27;;;;;;;19.60;11.45;;;;;;;;;;5093943;28;20221;-68
2021/12/22 00:59:53;;;;;;;17.33;11.25;;;;;;;;;;5094187;28;20236;-68
2021/12/22 01:02:20;;;;;;;17.73;11.83;;;;;;;;;;5094024;28;20524;-68
2021/12/22 01:04:47;;;;;;;19.48;12.13;;;;;;;;;;5092811;28;20963;-68
2021/12/22 01:07:13;;;;;;;17.02;11.77;;;;;;;;;;5093848;28;20202;-68
2021/12/22 01:09:39;;;;;;;17.70;10.90;;;;;;;;;;5094011;28;20182;-68
2021/12/22 01:12:06;;;;;;;18.17;10.90;;;;;;;;;;5093837;28;20243;-69
2021/12/22 01:14:33;;;;;;;18.50;11.48;;;;;;;;;;5093743;28;20185;-69
2021/12/22 01:17:01;;;;;;;22.45;11.15;;;;;;;;;;5093778;28;20171;-68
2021/12/22 01:19:43;;;;;;;17.40;11.63;;;;;;;;;;5093938;28;20170;-68
2021/12/22 01:24:48;;;;;;;19.80;11.65;;;;;;;;;;5093659;28;20175;-68
2021/12/22 01:27:18;;;;;;;21.70;11.98;;;;;;;;;;5093556;28;20213;-68
2021/12/22 01:29:44;;;;;;;16.98;10.70;;;;;;;;;;5092048;28;20639;-68
2021/12/22 01:32:12;;;;;;;19.07;11.73;;;;;;;;;;5092381;28;20232;-68
2021/12/22 01:34:38;;;;;;;18.20;11.75;;;;;;;;;;5093574;28;20408;-68
2021/12/22 01:37:04;;;;;;;18.00;11.27;;;;;;;;;;5093555;28;20171;-68
2021/12/22 01:39:30;;;;;;;15.65;10.57;;;;;;;;;;5093526;28;20429;-67
2021/12/22 01:41:57;;;;;;;18.23;12.38;;;;;;;;;;5093366;28;20206;-67
2021/12/22 01:44:59;;;;;;;17.52;11.70;;;;;;;;;;5093528;28;20199;-68
2021/12/22 01:50:10;;;;;;;21.17;11.88;;;;;;;;;;5093729;28;20225;-68
2021/12/22 01:52:36;;;;;;;19.50;11.18;;;;;;;;;;5093242;28;20262;-73
2021/12/22 01:55:14;;;;;;;21.88;12.07;;;;;;;;;;5092084;28;20218;-68
2021/12/22 01:57:47;;;;;;;18.25;11.20;;;;;;;;;;5093136;28;20547;-69
2021/12/22 02:00:15;;;;;;;20.38;11.98;;;;;;;;;;5093326;28;20206;-69
2021/12/22 02:02:41;;;;;;;17.05;11.68;;;;;;;;;;5093121;28;20621;-69
2021/12/22 02:05:07;;;;;;;23.10;12.38;;;;;;;;;;5093355;28;20304;-69
2021/12/22 02:07:33;;;;;;;18.70;12.45;;;;;;;;;;5091909;28;20303;-68
2021/12/22 02:10:14;;;;;;;23.23;11.93;;;;;;;;;;5091861;28;20206;-69
2021/12/22 02:12:46;;;;;;;18.70;12.77;;;;;;;;;;5093054;28;20425;-69
2021/12/22 02:15:13;;;;;;;28.20;13.25;;;;;;;;;;5091923;28;20178;-68
2021/12/22 02:17:40;;;;;;;19.80;11.90;;;;;;;;;;5093146;28;20178;-71
2021/12/22 02:20:06;;;;;;;22.95;13.27;;;;;;;;;;5093133;28;20400;-68
2021/12/22 02:22:33;;;;;;;20.65;12.30;;;;;;;;;;5092963;28;20171;-68
2021/12/22 02:25:06;;;;;;;20.45;12.82;;;;;;;;;;5093098;28;20223;-69
2021/12/22 02:27:38;;;;;;;21.13;12.15;;;;;;;;;;5091596;28;20227;-70
2021/12/22 02:30:06;;;;;;;17.65;12.20;;;;;;;;;;5093062;28;20614;-70
2021/12/22 02:35:03;;;;;;;25.17;12.60;;;;;;;;;;5092872;28;20186;-68
2021/12/22 02:37:30;;;;;;;18.58;12.05;;;;;;;;;;5092799;28;20163;-68
2021/12/22 02:40:11;;;;;;;20.20;11.60;;;;;;;;;;5093039;28;20175;-68
2021/12/22 02:42:37;;;;;;;17.23;11.75;;;;;;;;;;5096610;28;20662;-68
2021/12/22 02:45:08;;;;;;;23.35;12.98;;;;;;;;;;5096847;28;20181;-68
2021/12/22 02:47:34;;;;;;;19.33;12.00;;;;;;;;;;5096651;28;20233;-68
2021/12/22 02:50:00;;;;;;;19.10;12.50;;;;;;;;;;5095392;28;20634;-68
2021/12/22 02:52:33;;;;;;;18.10;12.70;;;;;;;;;;5096569;28;20408;-68
2021/12/22 02:55:01;;;;;;;22.35;12.70;;;;;;;;;;5095204;28;20412;-68
2021/12/22 02:57:31;;;;;;;23.40;13.35;;;;;;;;;;5096366;28;20214;-68
2021/12/22 03:03:26;;;;;;;21.95;12.52;;;;;;;;;;5096439;28;20178;-68
2021/12/22 03:05:19;;;;;;;21.13;13.45;;;;;;;;;;5090667;28;20187;-71
2021/12/22 03:07:47;;;;;;;22.70;13.65;;;;;;;;;;5095084;28;20704;-70
2021/12/22 03:10:17;;;;;;;25.17;13.15;;;;;;;;;;5096418;28;20489;-71
2021/12/22 03:12:43;;;;;;;24.33;13.27;;;;;;;;;;5096213;28;20191;-71
2021/12/22 03:15:10;;;;;;;21.83;13.43;;;;;;;;;;5094879;28;20680;-71
2021/12/22 03:17:37;;;;;;;25.35;13.65;;;;;;;;;;5096205;28;20165;-68
2021/12/22 03:20:04;;;;;;;19.83;12.00;;;;;;;;;;5096064;28;20194;-68
2021/12/22 03:22:30;;;;;;;21.17;13.43;;;;;;;;;;5095971;28;20171;-68
2021/12/22 03:24:56;;;;;;;19.25;12.63;;;;;;;;;;5096068;28;20529;-69
2021/12/22 03:27:24;;;;;;;19.50;12.27;;;;;;;;;;5095820;28;20738;-68
2021/12/22 03:29:51;;;;;;;24.95;14.13;;;;;;;;;;5095979;28;20413;-68
2021/12/22 03:32:17;;;;;;;18.15;12.85;;;;;;;;;;5095748;28;20174;-68
2021/12/22 03:34:43;;;;;;;24.80;11.98;;;;;;;;;;5095840;28;20175;-68
2021/12/22 03:37:10;;;;;;;23.02;12.70;;;;;;;;;;5094479;28;20737;-70
2021/12/22 03:39:37;;;;;;;23.35;12.40;;;;;;;;;;5094459;28;20191;-71
2021/12/22 03:42:04;;;;;;;19.40;12.10;;;;;;;;;;5095585;28;20283;-68
2021/12/22 03:44:30;;;;;;;20.08;11.55;;;;;;;;;;5095658;28;20254;-68
2021/12/22 03:46:58;;;;;;;19.38;11.80;;;;;;;;;;5095548;28;20563;-68
2021/12/22 03:49:24;;;;;;;20.45;12.65;;;;;;;;;;5095578;28;20164;-68
2021/12/22 03:51:50;;;;;;;19.90;12.35;;;;;;;;;;5094592;28;20679;-68
2021/12/22 03:54:16;;;;;;;21.08;11.75;;;;;;;;;;5095484;28;20175;-67
2021/12/22 03:56:42;;;;;;;17.70;11.80;;;;;;;;;;5093877;28;20218;-69
2021/12/22 03:59:08;;;;;;;22.15;12.52;;;;;;;;;;5095407;28;20174;-70
2021/12/22 04:01:34;;;;;;;17.55;11.50;;;;;;;;;;5093954;28;20634;-71
2021/12/22 04:04:06;;;;;;;18.77;12.43;;;;;;;;;;5095416;28;20223;-71
2021/12/22 04:06:32;;;;;;;23.90;13.73;;;;;;;;;;5095371;28;20203;-71
2021/12/22 04:08:58;;;;;;;19.38;11.80;;;;;;;;;;5093930;28;20201;-71
2021/12/22 04:11:25;;;;;;;18.85;12.65;;;;;;;;;;5094914;28;20191;-70
2021/12/22 04:13:51;;;;;;;24.00;12.40;;;;;;;;;;5095196;28;20173;-68
2021/12/22 04:16:17;;;;;;;21.08;12.80;;;;;;;;;;5095028;28;20179;-70
2021/12/22 04:18:43;;;;;;;22.30;13.75;;;;;;;;;;5094959;28;20171;-71
2021/12/22 04:21:09;;;;;;;20.80;12.30;;;;;;;;;;5094781;28;20185;-71
2021/12/22 04:23:35;;;;;;;23.80;13.20;;;;;;;;;;5094876;28;20409;-70
2021/12/22 04:26:02;;;;;;;23.05;13.60;;;;;;;;;;5094861;28;20558;-71
2021/12/22 04:28:28;;;;;;;22.42;12.13;;;;;;;;;;5094803;28;20166;-70
2021/12/22 04:30:54;;;;;;;23.80;12.57;;;;;;;;;;5093379;28;20167;-72
2021/12/22 04:33:20;;;;;;;18.98;11.63;;;;;;;;;;5093355;28;20225;-70
2021/12/22 04:35:47;;;;;;;22.45;12.52;;;;;;;;;;5094794;28;20175;-70
2021/12/22 04:38:13;;;;;;;21.48;12.93;;;;;;;;;;5094749;28;20166;-71
2021/12/22 04:40:39;;;;;;;19.55;13.07;;;;;;;;;;5094394;28;20175;-69
2021/12/22 04:43:05;;;;;;;23.42;14.60;;;;;;;;;;5094428;28;20163;-68
2021/12/22 04:45:31;;;;;;;19.17;12.55;;;;;;;;;;5094329;28;20218;-71
2021/12/22 04:47:57;;;;;;;21.13;12.48;;;;;;;;;;5094454;28;20568;-71
2021/12/22 04:50:23;;;;;;;20.77;12.77;;;;;;;;;;5094374;28;20174;-69
2021/12/22 04:52:59;;;;;;;22.92;13.05;;;;;;;;;;5094251;28;20262;-71
2021/12/22 04:55:26;;;;;;;22.00;13.38;;;;;;;;;;5094359;28;20166;-72
2021/12/22 04:57:56;;;;;;;21.77;13.02;;;;;;;;;;5093885;28;20657;-72
2021/12/22 05:00:22;;;;;;;19.52;12.95;;;;;;;;;;5094335;28;20195;-71
2021/12/22 05:02:49;;;;;;;18.67;12.02;;;;;;;;;;5092537;28;20585;-71
2021/12/22 05:05:15;;;;;;;21.05;13.57;;;;;;;;;;5093747;28;20711;-71
2021/12/22 05:07:43;;;;;;;21.90;13.48;;;;;;;;;;5094008;28;20205;-68
2021/12/22 05:10:09;;;;;;;27.60;12.48;;;;;;;;;;5094126;28;20181;-71
2021/12/22 05:12:35;;;;;;;18.88;12.40;;;;;;;;;;5093774;28;20282;-69
2021/12/22 05:15:02;;;;;;;22.50;12.65;;;;;;;;;;5093829;28;20174;-70
2021/12/22 05:20:09;;;;;;;23.40;13.07;;;;;;;;;;5093813;28;20765;-70
2021/12/22 05:22:35;;;;;;;21.35;12.25;;;;;;;;;;5092406;28;20336;-72
2021/12/22 05:25:03;;;;;;;19.95;12.95;;;;;;;;;;5093649;28;20175;-71
2021/12/22 05:27:30;;;;;;;23.10;12.00;;;;;;;;;;5093505;28;20256;-71
2021/12/22 05:29:56;;;;;;;24.70;12.55;;;;;;;;;;5093610;28;20703;-71
2021/12/22 05:32:26;;;;;;;24.63;13.77;;;;;;;;;;5093406;28;20174;-70
2021/12/22 05:34:52;;;;;;;20.50;12.18;;;;;;;;;;5093557;28;20171;-71
2021/12/22 05:37:18;;;;;;;21.85;13.27;;;;;;;;;;5093570;28;20181;-71
2021/12/22 05:39:44;;;;;;;24.00;12.80;;;;;;;;;;5093483;28;20171;-71
2021/12/22 05:42:10;;;;;;;22.87;14.30;;;;;;;;;;5093356;28;20194;-70
2021/12/22 05:44:36;;;;;;;21.63;13.17;;;;;;;;;;5093378;28;20430;-71
2021/12/22 05:47:02;;;;;;;21.57;12.37;;;;;;;;;;5093367;28;20780;-71
2021/12/22 05:49:29;;;;;;;20.23;12.75;;;;;;;;;;5093290;28;20493;-72
2021/12/22 05:51:55;;;;;;;20.15;12.50;;;;;;;;;;5093133;28;20186;-72
2021/12/22 05:54:21;;;;;;;22.67;12.93;;;;;;;;;;5093338;28;20179;-70
2021/12/22 05:56:47;;;;;;;24.63;13.18;;;;;;;;;;5093158;28;20214;-70
2021/12/22 05:59:13;;;;;;;21.40;12.70;;;;;;;;;;5093409;28;20657;-72
2021/12/22 06:01:39;;;;;;;20.93;13.00;;;;;;;;;;5093201;28;20400;-72
2021/12/22 06:04:06;;;;;;;24.93;12.63;;;;;;;;;;5093293;28;20408;-71
2021/12/22 06:06:32;;;;;;;23.70;13.88;;;;;;;;;;5091970;28;20467;-71
2021/12/22 06:08:58;;;;;;;24.38;12.75;;;;;;;;;;5093137;28;20175;-71
2021/12/22 06:11:24;;;;;;;23.60;13.03;;;;;;;;;;5092907;28;20206;-70
2021/12/22 06:13:50;;;;;;;21.33;12.65;;;;;;;;;;5093257;28;20403;-70
2021/12/22 06:16:17;;;;;;;23.85;13.07;;;;;;;;;;5096739;28;20174;-71
2021/12/22 06:18:44;;;;;;;22.33;13.70;;;;;;;;;;5097219;28;20170;-68
2021/12/22 06:21:12;;;;;;;29.50;12.73;;;;;;;;;;5095839;28;20186;-69
2021/12/22 06:23:38;;;;;;;27.23;13.73;;;;;;;;;;5097134;28;20174;-69
2021/12/22 06:26:04;;;;;;;24.83;14.98;;;;;;;;;;5096999;28;20204;-71
2021/12/22 06:28:30;;;;;;;21.98;13.18;;;;;;;;;;5097066;28;20174;-73
2021/12/22 06:30:56;;;;;;;26.13;14.00;;;;;;;;;;5096898;28;20163;-71
2021/12/22 06:33:22;;;;;;;23.80;13.70;;;;;;;;;;5097042;28;20178;-70
2021/12/22 06:35:48;;;;;;;24.67;13.55;;;;;;;;;;5096976;28;20419;-71
2021/12/22 06:38:15;;;;;;;23.17;12.85;;;;;;;;;;5096805;28;20558;-70
2021/12/22 06:40:41;;;;;;;27.20;13.40;;;;;;;;;;5095555;28;20265;-72
2021/12/22 06:43:07;;;;;;;25.15;13.55;;;;;;;;;;5096840;28;20170;-71
2021/12/22 06:45:33;;;;;;;22.45;13.52;;;;;;;;;;5096795;28;20178;-71
2021/12/22 06:47:59;;;;;;;24.08;14.32;;;;;;;;;;5096773;28;20249;-70
2021/12/22 06:50:26;;;;;;;22.70;13.80;;;;;;;;;;5095421;28;20574;-71
2021/12/22 06:52:52;;;;;;;23.52;13.77;;;;;;;;;;5096565;28;20889;-71
2021/12/22 06:55:18;;;;;;;22.98;14.05;;;;;;;;;;5096737;28;20174;-72
2021/12/22 06:57:44;;;;;;;28.87;13.90;;;;;;;;;;5096415;28;20299;-70
2021/12/22 07:00:11;;;;;;;28.23;14.70;;;;;;;;;;5096549;28;20409;-69
2021/12/22 07:02:38;;;;;;;24.25;12.65;;;;;;;;;;5096497;28;20178;-72
2021/12/22 07:05:05;;;;;;;22.80;13.93;;;;;;;;;;5096578;28;20183;-70
2021/12/22 07:07:31;;;;;;;23.52;13.88;;;;;;;;;;5095137;28;20270;-70
2021/12/22 07:09:57;;;;;;;22.40;12.80;;;;;;;;;;5096182;28;20497;-70
2021/12/22 07:12:23;;;;;;;22.83;12.88;;;;;;;;;;5096162;28;20646;-70
2021/12/22 07:14:49;;;;;;;21.63;12.87;;;;;;;;;;5095033;28;20180;-70
2021/12/22 07:17:15;;;;;;;23.48;13.80;;;;;;;;;;5096182;28;20403;-70
2021/12/22 07:19:41;;;;;;;29.20;14.77;;;;;;;;;;5096131;28;20166;-72
2021/12/22 07:22:08;;;;;;;21.80;13.90;;;;;;;;;;5096045;28;20903;-70
2021/12/22 07:24:34;;;;;;;27.08;14.77;;;;;;;;;;5094762;28;20462;-72
2021/12/22 07:27:00;;;;;;;23.45;13.55;;;;;;;;;;5095144;28;20686;-70
2021/12/22 07:29:26;;;;;;;23.55;13.82;;;;;;;;;;5095979;28;20526;-70
2021/12/22 07:31:52;;;;;;;31.58;14.65;;;;;;;;;;5095851;28;20227;-70
2021/12/22 07:34:44;;;;;;;23.27;12.67;;;;;;;;;;5094579;28;20178;-71
2021/12/22 07:37:27;;;;;;;22.88;12.93;;;;;;;;;;5092079;28;20424;-72
2021/12/22 07:39:54;;;;;;;26.13;13.77;;;;;;;;;;5095825;28;20236;-70
2021/12/22 07:42:20;;;;;;;23.33;14.13;;;;;;;;;;5095546;28;20188;-72
2021/12/22 07:44:46;;;;;;;24.63;14.23;;;;;;;;;;5095739;28;20172;-71
2021/12/22 07:47:12;;;;;;;21.98;13.30;;;;;;;;;;5094330;28;20221;-70
2021/12/22 07:49:38;;;;;;;23.90;15.13;;;;;;;;;;5095639;28;20314;-68
2021/12/22 07:52:04;;;;;;;24.15;13.23;;;;;;;;;;5095434;28;20458;-69
2021/12/22 07:54:30;;;;;;;23.83;13.57;;;;;;;;;;5095568;28;20167;-68
2021/12/22 07:56:56;;;;;;;26.85;15.73;;;;;;;;;;5094019;28;20231;-68
2021/12/22 07:59:22;;;;;;;23.15;13.85;;;;;;;;;;5095438;28;20165;-72
2021/12/22 08:01:48;;;;;;;24.80;13.85;;;;;;;;;;5095365;28;20252;-72
2021/12/22 08:04:14;;;;;;;26.58;15.23;;;;;;;;;;5095424;28;20174;-72
2021/12/22 08:06:40;;;;;;;25.85;14.82;;;;;;;;;;5095260;28;20211;-70
2021/12/22 08:09:07;;;;;;;27.50;15.40;;;;;;;;;;5095339;28;20220;-71
2021/12/22 08:11:33;;;;;;;23.25;13.70;;;;;;;;;;5095002;28;20413;-71
2021/12/22 08:13:59;;;;;;;30.88;15.63;;;;;;;;;;5095041;28;20645;-72
2021/12/22 08:16:26;;;;;;;24.88;14.48;;;;;;;;;;5093922;28;20178;-72
2021/12/22 08:18:52;;;;;;;30.00;14.80;;;;;;;;;;5095074;28;20541;-70
2021/12/22 08:21:18;;;;;;;23.55;13.00;;;;;;;;;;5094836;28;20176;-69
2021/12/22 08:23:44;;;;;;;23.33;12.57;;;;;;;;;;5094823;28;20622;-70
2021/12/22 08:26:10;;;;;;;29.63;15.87;;;;;;;;;;5094814;28;20752;-70
2021/12/22 08:28:36;;;;;;;23.20;14.98;;;;;;;;;;5094898;28;20458;-70
2021/12/22 08:31:02;;;;;;;23.85;14.20;;;;;;;;;;5094507;28;20162;-70
2021/12/22 08:33:31;;;;;;;32.60;15.35;;;;;;;;;;5094752;28;20174;-70
2021/12/22 08:38:55;;;;;;;26.63;13.85;;;;;;;;;;5093859;28;20640;-69
2021/12/22 08:41:23;;;;;;;26.95;12.80;;;;;;;;;;5094511;28;20221;-69
2021/12/22 08:43:50;;;;;;;27.38;13.95;;;;;;;;;;5094482;28;20171;-70
2021/12/22 08:46:16;;;;;;;23.48;13.20;;;;;;;;;;5093165;28;20207;-70
2021/12/22 08:48:43;;;;;;;25.17;14.40;;;;;;;;;;5094459;28;20166;-70
2021/12/22 08:51:09;;;;;;;23.50;14.23;;;;;;;;;;5093029;28;20202;-69
2021/12/22 08:53:35;;;;;;;25.95;14.88;;;;;;;;;;5094243;28;20180;-70
2021/12/22 08:56:01;;;;;;;30.45;15.60;;;;;;;;;;5094138;28;20182;-71
2021/12/22 08:58:28;;;;;;;26.27;14.60;;;;;;;;;;5094073;28;20241;-69
2021/12/22 09:00:54;;;;;;;24.77;14.95;;;;;;;;;;5094153;28;20166;-69
2021/12/22 09:03:20;;;;;;;24.95;14.52;;;;;;;;;;5094222;28;20223;-69
2021/12/22 09:05:46;;;;;;;26.23;14.40;;;;;;;;;;5094032;28;20253;-69
2021/12/22 09:08:12;;;;;;;25.73;14.67;;;;;;;;;;5094068;28;20405;-69
2021/12/22 09:10:38;;;;;;;28.83;15.13;;;;;;;;;;5093761;28;20437;-69
2021/12/22 09:13:04;;;;;;;25.08;14.18;;;;;;;;;;5093856;28;20797;-68
2021/12/22 09:15:30;;;;;;;27.42;15.48;;;;;;;;;;5093911;28;20248;-68
2021/12/22 09:17:56;;;;;;;27.98;14.27;;;;;;;;;;5094005;28;20174;-68
2021/12/22 09:20:22;;;;;;;23.20;13.73;;;;;;;;;;5093912;28;20246;-69
2021/12/22 09:22:48;;;;;;;25.98;14.15;;;;;;;;;;5093754;28;20170;-68
2021/12/22 09:25:14;;;;;;;26.37;14.40;;;;;;;;;;5093725;28;20170;-68
2021/12/22 09:27:40;;;;;;;26.27;14.63;;;;;;;;;;5093721;28;20541;-68
2021/12/22 09:30:08;;;;;;;25.10;14.97;;;;;;;;;;5092316;28;20540;-68
2021/12/22 09:32:34;;;;;;;26.77;13.90;;;;;;;;;;5093565;28;20449;-71
2021/12/22 09:35:00;;;;;;;21.55;13.43;;;;;;;;;;5093677;28;20171;-70
2021/12/22 09:37:26;;;;;;;29.57;14.83;;;;;;;;;;5093480;28;20217;-70
2021/12/22 09:39:52;;;;;;;26.67;14.20;;;;;;;;;;5093556;28;20804;-70
2021/12/22 09:42:18;;;;;;;23.33;13.37;;;;;;;;;;5092111;28;20425;-70
2021/12/22 09:44:45;;;;;;;28.40;14.47;;;;;;;;;;5093576;28;20398;-68
2021/12/22 09:47:12;;;;;;;25.00;12.97;;;;;;;;;;5093301;28;20508;-68
2021/12/22 09:52:23;;;;;;;22.48;13.45;;;;;;;;;;5093210;28;20178;-68
2021/12/22 09:54:51;;;;;;;25.42;13.85;;;;;;;;;;5093336;28;20172;-68
2021/12/22 09:57:18;;;;;;;22.92;12.85;;;;;;;;;;5093021;28;20689;-69
2021/12/22 09:59:52;;;;;;;23.25;13.48;;;;;;;;;;5093374;28;20178;-70
2021/12/22 10:02:19;;;;;;;24.88;12.80;;;;;;;;;;5093307;28;20733;-69
2021/12/22 10:04:45;;;;;;;20.55;11.55;;;;;;;;;;5093331;28;20676;-69
2021/12/22 10:07:25;;;;;;;24.42;12.63;;;;;;;;;;5093221;28;20220;-69
2021/12/22 10:09:52;;;;;;;24.92;12.50;;;;;;;;;;5093316;28;20172;-69
2021/12/22 10:12:19;;;;;;;23.92;13.30;;;;;;;;;;5092982;28;20187;-69
2021/12/22 10:14:50;;;;;;;22.40;12.43;;;;;;;;;;5093137;28;20172;-71
2021/12/22 10:17:28;;;;;;;21.97;11.87;;;;;;;;;;5091990;28;20411;-68
2021/12/22 10:19:56;;;;;;;20.10;11.68;;;;;;;;;;5093083;28;20417;-68
2021/12/22 10:22:28;;;;;;;22.60;12.83;;;;;;;;;;5093070;28;20246;-68
2021/12/22 10:24:59;;;;;;;22.97;12.97;;;;;;;;;;5093153;28;20413;-68
2021/12/22 10:27:27;;;;;;;22.80;12.60;;;;;;;;;;5091755;28;20464;-69
2021/12/22 10:29:53;;;;;;;19.75;12.00;;;;;;;;;;5093037;28;20404;-68
2021/12/22 10:32:19;;;;;;;24.07;12.90;;;;;;;;;;5092817;28;20179;-68
2021/12/22 10:34:58;;;;;;;26.60;15.40;;;;;;;;;;5093091;28;20394;-68
2021/12/22 10:37:31;;;;;;;20.93;13.23;;;;;;;;;;5093063;28;20194;-68
2021/12/22 10:39:57;;;;;;;22.80;11.83;;;;;;;;;;5092978;28;20896;-68
2021/12/22 10:42:38;;;;;;;23.57;13.07;;;;;;;;;;5092725;28;20437;-69
2021/12/22 10:45:11;;;;;;;23.37;12.50;;;;;;;;;;5092932;28;20447;-69
2021/12/22 10:49:14;;;;;;;21.85;13.70;;;;;;;;;;5092732;28;20457;-69
2021/12/22 10:50:32;;;;;;;21.83;12.57;;;;;;;;;;5092655;28;20270;-70
2021/12/22 10:52:58;;;;;;;28.80;13.20;;;;;;;;;;5092921;28;20409;-69
2021/12/22 10:55:24;;;;;;;22.20;12.50;;;;;;;;;;5092776;28;20395;-70
2021/12/22 10:57:50;;;;;;;25.00;12.77;;;;;;;;;;5092479;28;20543;-68
2021/12/22 11:00:20;;;;;;;22.00;11.90;;;;;;;;;;5092868;28;20393;-70
2021/12/22 11:03:01;;;;;;;25.30;13.00;;;;;;;;;;5095075;28;20412;-70
2021/12/22 11:05:29;;;;;;;29.70;14.43;;;;;;;;;;5096515;28;20412;-69
2021/12/22 11:07:55;;;;;;;24.93;12.90;;;;;;;;;;5096288;28;20464;-70
2021/12/22 11:10:24;;;;;;;26.07;12.17;;;;;;;;;;5096140;28;20406;-70
2021/12/22 11:12:59;;;;;;;23.97;13.40;;;;;;;;;;5096083;28;20397;-71
2021/12/22 11:15:26;;;;;;;20.80;12.00;;;;;;;;;;5096339;28;20385;-71
2021/12/22 11:17:52;;;;;;;21.70;12.37;;;;;;;;;;5096213;28;20394;-71
2021/12/22 11:20:22;;;;;;;20.53;12.20;;;;;;;;;;5096175;28;20463;-71
2021/12/22 11:23:00;;;;;;;21.47;12.60;;;;;;;;;;5096084;28;20756;-72
2021/12/22 11:25:26;;;;;;;27.87;13.47;;;;;;;;;;5096049;28;20442;-71
2021/12/22 11:27:53;;;;;;;23.57;12.73;;;;;;;;;;5095946;28;20469;-73
2021/12/22 11:30:20;;;;;;;27.07;13.37;;;;;;;;;;5096015;28;20408;-72
2021/12/22 11:32:46;;;;;;;26.83;14.50;;;;;;;;;;5095831;28;20405;-71
2021/12/22 11:35:13;;;;;;;23.10;13.27;;;;;;;;;;5095945;28;20401;-71
2021/12/22 11:37:39;;;;;;;26.60;12.83;;;;;;;;;;5095792;28;20435;-71
2021/12/22 11:40:08;;;;;;;23.30;12.50;;;;;;;;;;5094527;28;20413;-71
2021/12/22 11:42:37;;;;;;;22.30;12.10;;;;;;;;;;5095669;28;20482;-72
2021/12/22 11:45:16;;;;;;;22.20;12.67;;;;;;;;;;5095789;28;20401;-72
2021/12/22 11:47:46;;;;;;;25.20;12.43;;;;;;;;;;5095671;28;20462;-72
2021/12/22 11:50:19;;;;;;;25.93;14.90;;;;;;;;;;5095673;28;20876;-72
2021/12/22 11:52:55;;;;;;;21.30;12.30;;;;;;;;;;5095486;28;20405;-71
2021/12/22 11:55:22;;;;;;;20.53;12.67;;;;;;;;;;5095508;28;20450;-72
2021/12/22 11:58:11;;;;;;;22.70;13.03;;;;;;;;;;5095236;28;20457;-72
2021/12/22 12:00:38;;;;;;;23.17;12.93;;;;;;;;;;5095356;28;20409;-71
2021/12/22 12:03:22;;;;;;;26.60;13.30;;;;;;;;;;5095397;28;20405;-72
2021/12/22 12:06:00;;;;;;;23.03;12.53;;;;;;;;;;5095165;28;20759;-72
2021/12/22 12:08:32;;;;;;;20.87;12.67;;;;;;;;;;5095178;28;20815;-72
2021/12/22 12:10:59;;;;;;;24.13;12.70;;;;;;;;;;5094944;28;20424;-70
2021/12/22 12:13:34;;;;;;;24.40;12.73;;;;;;;;;;5094911;28;20522;-72
2021/12/22 12:21:56;;;;;;;21.37;12.20;;;;;;;;;;5094999;28;20404;-73
2021/12/22 12:24:31;;;;;;;22.27;13.03;;;;;;;;;;5094891;28;20492;-72
2021/12/22 12:27:00;;;;;;;22.27;12.43;;;;;;;;;;5094722;28;20530;-72
2021/12/22 12:29:45;;;;;;;20.03;12.33;;;;;;;;;;5094647;28;20886;-72
2021/12/22 12:32:31;;;;;;;19.50;11.57;;;;;;;;;;5094551;28;20411;-72
2021/12/22 12:35:15;;;;;;;24.43;13.37;;;;;;;;;;5093328;28;20435;-71
2021/12/22 12:38:00;;;;;;;25.50;13.50;;;;;;;;;;5094616;28;20463;-70
2021/12/22 12:40:45;;;;;;;24.57;13.07;;;;;;;;;;5094436;28;20864;-70
2021/12/22 12:43:11;;;;;;;24.40;12.87;;;;;;;;;;5093263;28;20933;-71
2021/12/22 12:45:42;;;;;;;26.07;13.60;;;;;;;;;;5093189;28;20409;-70
2021/12/22 12:48:26;;;;;;;25.27;15.37;;;;;;;;;;5094537;28;20816;-71
2021/12/22 12:51:32;;;;;;;31.73;17.00;;;;;;;;;;5094211;28;20767;-71
2021/12/22 12:54:03;;;;;;;26.10;15.83;;;;;;;;;;5012258;28;20516;-72
2021/12/22 12:56:37;;;;;;;23.90;12.97;;;;;;;;;;5095416;28;20444;-72
2021/12/22 12:59:04;;;;;;;23.60;13.90;;;;;;;;;;5093061;28;20457;-72
2021/12/22 13:01:45;;;;;;;21.93;12.77;;;;;;;;;;5092806;28;20796;-72
2021/12/22 13:04:23;;;;;;;26.03;14.57;;;;;;;;;;5092914;28;20409;-73
2021/12/22 13:07:09;;;;;;;21.60;12.17;;;;;;;;;;5093946;28;20456;-73
2021/12/22 13:09:35;;;;;;;22.23;13.27;;;;;;;;;;5093858;28;20782;-73
2021/12/22 13:12:16;;;;;;;23.20;12.57;;;;;;;;;;5092664;28;20829;-73
2021/12/22 13:17:37;;;;;;;24.97;14.23;;;;;;;;;;5074119;28;20782;-74
2021/12/22 13:20:03;;;;;;;27.40;13.70;;;;;;;;;;5093745;28;20393;-73
2021/12/22 13:22:31;;;;;;;21.43;13.93;;;;;;;;;;5093801;28;20431;-72
2021/12/22 13:25:18;;;;;;;28.00;14.20;;;;;;;;;;5093209;28;20913;-72
2021/12/22 13:27:54;;;;;;;22.20;12.73;;;;;;;;;;5092465;28;20978;-72
2021/12/22 13:30:21;;;;;;;23.03;12.83;;;;;;;;;;5092507;28;20405;-72
2021/12/22 13:33:00;;;;;;;25.43;13.40;;;;;;;;;;5092369;28;20407;-73
2021/12/22 13:35:30;;;;;;;26.63;13.87;;;;;;;;;;5093623;28;20447;-72
2021/12/22 13:37:56;;;;;;;29.30;13.40;;;;;;;;;;5093642;28;20406;-72
2021/12/22 13:40:40;;;;;;;24.30;14.70;;;;;;;;;;5092440;28;20507;-73
2021/12/22 13:43:06;;;;;;;24.27;13.23;;;;;;;;;;5092469;28;20399;-72
2021/12/22 13:45:33;;;;;;;25.23;15.07;;;;;;;;;;5093469;28;20495;-72
2021/12/22 13:48:00;;;;;;;24.90;14.70;;;;;;;;;;5093513;28;20471;-71
2021/12/22 13:50:26;;;;;;;26.67;13.63;;;;;;;;;;5093347;28;20749;-73
2021/12/22 13:52:52;;;;;;;21.50;12.67;;;;;;;;;;5093429;28;20504;-73
2021/12/22 13:55:18;;;;;;;24.20;13.60;;;;;;;;;;5093317;28;20399;-72
2021/12/22 13:57:44;;;;;;;23.90;12.70;;;;;;;;;;5091974;28;21015;-72
2021/12/22 14:00:10;;;;;;;25.40;14.33;;;;;;;;;;5093365;28;20393;-72
2021/12/22 14:02:37;;;;;;;20.57;12.63;;;;;;;;;;5093305;28;20461;-73
2021/12/22 14:05:16;;;;;;;23.70;14.00;;;;;;;;;;5093285;28;20412;-72
2021/12/22 14:07:42;;;;;;;31.80;17.77;;;;;;;;;;5093118;28;20466;-72
2021/12/22 14:10:09;;;;;;;24.63;13.83;;;;;;;;;;5091971;28;20449;-72
2021/12/22 14:12:37;;;;;;;20.30;13.87;;;;;;;;;;5091865;28;20401;-72
2021/12/22 14:15:03;;;;;;;23.40;14.40;;;;;;;;;;5093210;28;20424;-72
2021/12/22 14:17:32;;;;;;;26.60;14.10;;;;;;;;;;5093117;28;20541;-72
2021/12/22 14:20:00;;;;;;;26.00;14.03;;;;;;;;;;5091933;28;20401;-73
2021/12/22 14:22:32;;;;;;;28.30;15.37;;;;;;;;;;5093163;28;20407;-71
2021/12/22 14:25:10;;;;;;;25.90;15.17;;;;;;;;;;5093184;28;20400;-71
2021/12/22 14:27:41;;;;;;;24.50;14.53;;;;;;;;;;5093057;28;20534;-71
2021/12/22 14:30:20;;;;;;;27.27;13.90;;;;;;;;;;5093018;28;20455;-71
2021/12/22 14:32:52;;;;;;;23.37;13.53;;;;;;;;;;5092830;28;20419;-72
2021/12/22 14:35:20;;;;;;;27.73;15.53;;;;;;;;;;5091699;28;20420;-71
2021/12/22 14:37:46;;;;;;;20.17;13.70;;;;;;;;;;5097024;28;20480;-71
2021/12/22 14:40:14;;;;;;;20.50;14.03;;;;;;;;;;5096861;28;20440;-70
2021/12/22 14:42:40;;;;;;;27.10;13.73;;;;;;;;;;5097008;28;20462;-71
2021/12/22 14:45:28;;;;;;;23.80;12.60;;;;;;;;;;5096863;28;20408;-71
2021/12/22 14:48:01;;;;;;;24.90;13.07;;;;;;;;;;5096806;28;20483;-72
2021/12/22 14:50:27;;;;;;;22.80;13.30;;;;;;;;;;5095401;28;20405;-70
2021/12/22 14:52:54;;;;;;;21.80;13.10;;;;;;;;;;5096650;28;20420;-70